createdAt,value
2019-01-10T00:00:11.271Z,3.00
2019-01-10T00:02:13.148Z,2.93
2019-01-10T00:04:15.043Z,3.03
2019-01-10T00:06:16.681Z,3.10
2019-01-10T00:08:18.319Z,3.03
2019-01-10T00:10:20.190Z,3.20
2019-01-10T00:12:22.073Z,2.93
2019-01-10T00:14:23.952Z,3.00
2019-01-10T00:16:25.587Z,3.10
2019-01-10T00:18:27.248Z,2.63
2019-01-10T00:20:28.884Z,2.93
2019-01-10T00:22:30.523Z,2.50
2019-01-10T00:24:32.168Z,3.70
2019-01-10T00:26:34.040Z,2.60
2019-01-10T00:28:35.704Z,3.30
2019-01-10T00:30:37.584Z,3.23
2019-01-10T00:32:39.704Z,2.60
2019-01-10T00:34:41.347Z,3.00
2019-01-10T00:36:43.228Z,2.80
2019-01-10T00:38:44.882Z,2.90
2019-01-10T00:40:46.531Z,2.80
2019-01-10T00:42:49.710Z,2.80
2019-01-10T00:44:51.957Z,2.60
2019-01-10T00:46:53.583Z,3.03
2019-01-10T00:48:55.707Z,2.20
2019-01-10T00:50:57.376Z,2.43
2019-01-10T00:52:59.016Z,3.53
2019-01-10T00:55:00.679Z,2.80
2019-01-10T00:57:02.345Z,2.90
2019-01-10T00:59:03.992Z,2.90
2019-01-10T01:01:05.635Z,2.90
2019-01-10T01:03:07.271Z,2.90
2019-01-10T01:05:10.107Z,2.40
2019-01-10T01:07:11.753Z,3.22
2019-01-10T01:09:13.400Z,2.17
2019-01-10T01:11:15.039Z,2.33
2019-01-10T01:13:16.684Z,2.60
2019-01-10T01:15:18.368Z,2.85
2019-01-10T01:17:20.007Z,2.55
2019-01-10T01:19:21.676Z,2.62
2019-01-10T01:21:23.316Z,2.80
2019-01-10T01:23:24.967Z,3.10
2019-01-10T01:25:26.864Z,3.03
2019-01-10T01:27:28.509Z,2.10
2019-01-10T01:29:30.164Z,2.58
2019-01-10T01:31:32.050Z,2.98
2019-01-10T01:33:33.690Z,2.37
2019-01-10T01:35:35.344Z,2.58
2019-01-10T01:37:36.984Z,2.10
2019-01-10T01:39:38.632Z,2.30
2019-01-10T01:41:40.292Z,2.10
2019-01-10T01:43:42.166Z,2.47
2019-01-10T01:45:43.815Z,2.27
2019-01-10T01:47:45.948Z,2.27
2019-01-10T01:49:47.603Z,2.20
2019-01-10T01:51:49.244Z,2.37
2019-01-10T01:53:50.896Z,2.33
2019-01-10T01:55:53.019Z,1.80
2019-01-10T01:57:54.668Z,2.33
2019-01-10T01:59:56.324Z,1.92
2019-01-10T02:01:57.972Z,3.30
2019-01-10T02:03:59.616Z,2.10
2019-01-10T02:06:01.279Z,2.30
2019-01-10T02:08:02.935Z,2.37
2019-01-10T02:10:08.584Z,2.50
2019-01-10T02:12:10.227Z,2.12
2019-01-10T02:14:12.108Z,2.30
2019-01-10T02:16:13.759Z,3.45
2019-01-10T02:18:15.631Z,3.05
2019-01-10T02:20:17.279Z,2.30
2019-01-10T02:22:19.015Z,3.02
2019-01-10T02:24:20.667Z,2.60
2019-01-10T02:26:22.319Z,2.45
2019-01-10T02:28:23.967Z,1.98
2019-01-10T02:30:25.719Z,2.25
2019-01-10T02:32:27.359Z,2.20
2019-01-10T02:34:29.243Z,2.45
2019-01-10T02:36:30.897Z,2.40
2019-01-10T02:38:32.541Z,1.75
2019-01-10T02:40:34.187Z,2.02
2019-01-10T02:42:36.061Z,2.15
2019-01-10T02:44:37.696Z,2.27
2019-01-10T02:46:39.349Z,2.10
2019-01-10T02:48:41.000Z,2.25
2019-01-10T02:50:42.640Z,2.87
2019-01-10T02:52:44.540Z,2.55
2019-01-10T02:54:46.192Z,2.50
2019-01-10T02:56:48.079Z,2.12
2019-01-10T02:58:49.723Z,1.90
2019-01-10T03:00:51.393Z,1.75
2019-01-10T03:02:53.275Z,2.35
2019-01-10T03:04:54.919Z,2.40
2019-01-10T03:06:56.652Z,2.10
2019-01-10T03:08:58.519Z,2.22
2019-01-10T03:11:00.171Z,1.70
2019-01-10T03:13:01.816Z,2.35
2019-01-10T03:15:03.831Z,2.12
2019-01-10T03:17:05.583Z,2.05
2019-01-10T03:19:07.228Z,2.20
2019-01-10T03:21:08.885Z,2.33
2019-01-10T03:23:10.531Z,3.05
2019-01-10T03:25:12.168Z,2.40
2019-01-10T03:27:14.056Z,2.35
2019-01-10T03:29:15.700Z,3.05
2019-01-10T03:31:17.359Z,2.75
2019-01-10T03:33:18.999Z,2.22
2019-01-10T03:35:20.646Z,2.60
2019-01-10T03:37:22.288Z,2.05
2019-01-10T03:39:24.028Z,2.00
2019-01-10T03:41:25.698Z,2.70
2019-01-10T03:43:27.345Z,2.27
2019-01-10T03:45:28.987Z,2.47
2019-01-10T03:47:30.647Z,2.30
2019-01-10T03:49:32.526Z,2.60
2019-01-10T03:51:34.175Z,2.70
2019-01-10T03:53:35.816Z,2.67
2019-01-10T03:55:37.700Z,2.30
2019-01-10T03:57:39.354Z,2.60
2019-01-10T03:59:41.237Z,2.22
2019-01-10T04:01:42.888Z,2.40
2019-01-10T04:03:44.533Z,2.77
2019-01-10T04:05:46.411Z,3.15
2019-01-10T04:07:48.068Z,2.80
2019-01-10T04:09:49.943Z,2.67
2019-01-10T04:11:52.532Z,2.85
2019-01-10T04:13:57.495Z,2.80
2019-01-10T04:15:57.776Z,2.25
2019-01-10T04:17:59.415Z,2.65
2019-01-10T04:20:01.304Z,2.90
2019-01-10T04:22:03.040Z,2.83
2019-01-10T04:24:04.681Z,2.58
2019-01-10T04:26:06.327Z,3.10
2019-01-10T04:28:08.216Z,2.72
2019-01-10T04:30:12.893Z,3.55
2019-01-10T04:32:14.544Z,3.25
2019-01-10T04:34:16.187Z,3.10
2019-01-10T04:36:17.831Z,3.72
2019-01-10T04:38:19.488Z,2.95
2019-01-10T04:40:21.132Z,3.55
2019-01-10T04:42:22.775Z,3.60
2019-01-10T04:44:24.421Z,3.20
2019-01-10T04:46:26.296Z,2.90
2019-01-10T04:48:27.940Z,3.25
2019-01-10T04:50:29.587Z,3.60
2019-01-10T04:52:31.248Z,3.50
2019-01-10T04:54:38.225Z,3.10
2019-01-10T04:56:36.688Z,2.90
2019-01-10T04:58:38.598Z,3.98
2019-01-10T05:00:40.236Z,3.40
2019-01-10T05:02:41.888Z,3.47
2019-01-10T05:04:43.533Z,3.20
2019-01-10T05:06:45.171Z,3.83
2019-01-10T05:08:46.836Z,3.17
2019-01-10T05:10:48.475Z,3.95
2019-01-10T05:12:50.128Z,4.17
2019-01-10T05:14:51.777Z,3.20
2019-01-10T05:16:53.444Z,3.22
2019-01-10T05:18:55.096Z,3.75
2019-01-10T05:20:56.744Z,3.77
2019-01-10T05:22:58.407Z,3.55
2019-01-10T05:25:00.051Z,7.70
2019-01-10T05:27:01.803Z,12.37
2019-01-10T05:29:03.463Z,26.85
2019-01-10T05:31:05.115Z,14.23
2019-01-10T05:33:06.763Z,7.35
2019-01-10T05:35:08.419Z,5.75
2019-01-10T05:37:10.297Z,4.22
2019-01-10T05:39:12.180Z,3.98
2019-01-10T05:41:14.066Z,4.05
2019-01-10T05:43:15.720Z,3.77
2019-01-10T05:45:17.368Z,4.67
2019-01-10T05:47:19.253Z,3.25
2019-01-10T05:49:20.895Z,4.10
2019-01-10T05:51:22.545Z,3.67
2019-01-10T05:53:24.671Z,3.40
2019-01-10T05:55:26.564Z,3.65
2019-01-10T05:57:28.204Z,3.30
2019-01-10T05:59:29.860Z,4.08
2019-01-10T06:01:31.504Z,3.35
2019-01-10T06:03:33.166Z,3.40
2019-01-10T06:05:35.048Z,3.27
2019-01-10T06:07:36.688Z,3.08
2019-01-10T06:09:38.344Z,3.40
2019-01-10T06:11:39.991Z,3.80
2019-01-10T06:13:41.643Z,4.17
2019-01-10T06:15:43.283Z,3.00
2019-01-10T06:17:44.932Z,3.80
2019-01-10T06:19:46.588Z,3.30
2019-01-10T06:21:48.472Z,2.90
2019-01-10T06:23:50.370Z,3.75
2019-01-10T06:25:52.008Z,6.83
2019-01-10T06:27:53.658Z,3.83
2019-01-10T06:29:55.304Z,2.67
2019-01-10T06:31:56.943Z,3.58
2019-01-10T06:33:59.332Z,3.00
2019-01-10T06:36:00.976Z,3.35
2019-01-10T06:38:02.619Z,3.60
2019-01-10T06:40:04.895Z,4.03
2019-01-10T06:42:06.776Z,3.25
2019-01-10T06:44:08.423Z,4.05
2019-01-10T06:46:10.323Z,3.83
2019-01-10T06:48:12.202Z,10.43
2019-01-10T06:50:14.512Z,3.72
2019-01-10T06:52:16.147Z,5.37
2019-01-10T06:54:18.027Z,5.92
2019-01-10T06:56:19.691Z,23.75
2019-01-10T06:58:21.352Z,9.08
2019-01-10T07:00:23.836Z,10.13
2019-01-10T07:02:25.486Z,4.53
2019-01-10T07:04:27.367Z,5.95
2019-01-10T07:06:29.017Z,12.88
2019-01-10T07:08:30.652Z,8.40
2019-01-10T07:10:32.303Z,9.50
2019-01-10T07:12:34.192Z,14.23
2019-01-10T07:14:35.840Z,14.53
2019-01-10T07:16:37.737Z,7.08
2019-01-10T07:18:39.612Z,5.40
2019-01-10T07:20:41.264Z,3.27
2019-01-10T07:22:45.041Z,4.40
2019-01-10T07:24:51.216Z,3.00
2019-01-10T07:26:56.400Z,3.37
2019-01-10T07:28:58.275Z,3.62
2019-01-10T07:31:02.061Z,4.72
2019-01-10T07:33:05.862Z,4.08
2019-01-10T07:35:11.316Z,4.05
2019-01-10T07:37:13.237Z,3.98
2019-01-10T07:39:14.901Z,4.35
2019-01-10T07:41:16.549Z,3.50
2019-01-10T07:43:25.839Z,4.62
2019-01-10T07:45:27.527Z,4.17
2019-01-10T07:47:46.113Z,4.25
2019-01-10T07:49:47.987Z,3.77
2019-01-10T07:51:49.640Z,4.17
2019-01-10T07:53:51.288Z,4.80
2019-01-10T07:55:52.960Z,4.80
2019-01-10T07:57:55.083Z,4.20
2019-01-10T07:59:56.728Z,3.80
2019-01-10T08:01:58.376Z,4.12
2019-01-10T08:04:00.020Z,4.00
2019-01-10T08:06:01.671Z,3.80
2019-01-10T08:08:03.881Z,4.80
2019-01-10T08:10:09.552Z,4.40
2019-01-10T08:12:11.207Z,4.30
2019-01-10T08:14:12.852Z,4.85
2019-01-10T08:16:14.503Z,5.87
2019-01-10T08:18:16.156Z,5.00
2019-01-10T08:20:17.916Z,4.80
2019-01-10T08:22:27.520Z,4.58
2019-01-10T08:24:24.591Z,5.33
2019-01-10T08:26:26.400Z,4.78
2019-01-10T08:28:28.040Z,4.87
2019-01-10T08:30:29.920Z,5.45
2019-01-10T08:32:31.580Z,6.03
2019-01-10T08:34:33.220Z,5.12
2019-01-10T08:36:34.878Z,5.55
2019-01-10T08:38:36.524Z,5.03
2019-01-10T08:40:38.168Z,5.45
2019-01-10T08:42:39.824Z,5.90
2019-01-10T08:44:41.766Z,6.80
2019-01-10T08:46:43.683Z,4.30
2019-01-10T08:48:45.320Z,6.43
2019-01-10T08:50:46.969Z,5.85
2019-01-10T08:52:48.867Z,6.65
2019-01-10T08:54:51.895Z,6.10
2019-01-10T08:56:53.620Z,5.95
2019-01-10T08:58:55.264Z,5.87
2019-01-10T09:00:56.908Z,5.72
2019-01-10T09:02:58.569Z,6.92
2019-01-10T09:05:00.447Z,6.12
2019-01-10T09:07:02.101Z,5.80
2019-01-10T09:09:06.868Z,5.67
2019-01-10T09:11:08.516Z,6.50
2019-01-10T09:13:10.173Z,6.12
2019-01-10T09:15:11.815Z,6.70
2019-01-10T09:17:13.464Z,6.28
2019-01-10T09:19:15.148Z,5.97
2019-01-10T09:21:16.792Z,6.28
2019-01-10T09:23:18.684Z,6.12
2019-01-10T09:25:20.336Z,6.20
2019-01-10T09:27:22.223Z,6.30
2019-01-10T09:29:23.880Z,6.08
2019-01-10T09:31:25.626Z,6.30
2019-01-10T09:33:27.282Z,5.83
2019-01-10T09:35:28.925Z,7.47
2019-01-10T09:37:30.580Z,6.00
2019-01-10T09:39:32.467Z,6.90
2019-01-10T09:41:34.134Z,6.50
2019-01-10T09:43:35.788Z,6.55
2019-01-10T09:45:43.019Z,9.50
2019-01-10T09:47:41.228Z,6.42
2019-01-10T09:49:43.115Z,6.22
2019-01-10T09:51:44.755Z,5.70
2019-01-10T09:53:46.642Z,6.80
2019-01-10T09:55:48.523Z,6.45
2019-01-10T09:57:50.187Z,5.62
2019-01-10T09:59:52.084Z,5.80
2019-01-10T10:01:53.728Z,7.60
2019-01-10T10:03:55.373Z,6.67
2019-01-10T10:05:57.011Z,6.47
2019-01-10T10:07:58.907Z,7.42
2019-01-10T10:10:00.551Z,6.40
2019-01-10T10:12:02.193Z,7.07
2019-01-10T10:14:03.920Z,6.47
2019-01-10T10:16:05.803Z,6.95
2019-01-10T10:18:07.675Z,6.33
2019-01-10T10:20:11.339Z,8.27
2019-01-10T10:22:13.217Z,8.10
2019-01-10T10:24:14.859Z,7.00
2019-01-10T10:26:16.491Z,7.20
2019-01-10T10:28:18.132Z,6.37
2019-01-10T10:30:20.205Z,6.50
2019-01-10T10:32:21.848Z,7.00
2019-01-10T10:34:23.727Z,6.17
2019-01-10T10:36:25.371Z,6.03
2019-01-10T10:38:27.024Z,6.83
2019-01-10T10:40:28.895Z,6.00
2019-01-10T10:42:30.541Z,6.70
2019-01-10T10:44:32.188Z,6.97
2019-01-10T10:46:34.070Z,6.50
2019-01-10T10:48:35.712Z,7.00
2019-01-10T10:50:37.353Z,6.27
2019-01-10T10:52:38.991Z,7.07
2019-01-10T10:54:40.740Z,6.40
2019-01-10T10:56:42.627Z,7.20
2019-01-10T10:58:44.269Z,6.00
2019-01-10T11:00:45.912Z,6.37
2019-01-10T11:02:47.560Z,5.87
2019-01-10T11:04:49.207Z,6.50
2019-01-10T11:06:50.848Z,6.73
2019-01-10T11:08:52.496Z,5.60
2019-01-10T11:10:54.368Z,6.53
2019-01-10T11:12:56.004Z,6.10
2019-01-10T11:14:57.660Z,7.23
2019-01-10T11:16:59.519Z,6.60
2019-01-10T11:19:01.184Z,5.77
2019-01-10T11:21:03.070Z,6.53
2019-01-10T11:23:10.577Z,7.10
2019-01-10T11:25:11.468Z,7.03
2019-01-10T11:27:13.104Z,8.13
2019-01-10T11:29:14.751Z,6.40
2019-01-10T11:31:16.393Z,7.20
2019-01-10T11:33:18.259Z,7.23
2019-01-10T11:35:19.903Z,7.10
2019-01-10T11:37:21.540Z,6.83
2019-01-10T11:39:23.179Z,6.20
2019-01-10T11:41:24.819Z,7.13
2019-01-10T11:43:26.696Z,6.73
2019-01-10T11:45:28.346Z,6.20
2019-01-10T11:47:29.980Z,6.73
2019-01-10T11:49:32.087Z,6.27
2019-01-10T11:51:33.740Z,6.20
2019-01-10T11:53:35.884Z,6.37
2019-01-10T11:55:37.617Z,5.93
2019-01-10T11:57:39.255Z,6.30
2019-01-10T11:59:40.888Z,6.53
2019-01-10T12:01:42.540Z,6.23
2019-01-10T12:03:44.169Z,6.73
2019-01-10T12:05:52.799Z,5.60
2019-01-10T12:07:51.719Z,6.20
2019-01-10T12:09:53.595Z,5.40
2019-01-10T12:11:55.236Z,5.70
2019-01-10T12:13:56.877Z,5.97
2019-01-10T12:15:58.524Z,5.67
2019-01-10T12:18:00.403Z,3.20
2019-01-10T12:20:02.064Z,3.60
2019-01-10T12:22:03.999Z,4.70
2019-01-10T12:24:05.628Z,3.90
2019-01-10T12:26:07.263Z,4.13
2019-01-10T12:28:08.915Z,3.03
2019-01-10T12:30:13.675Z,2.57
2019-01-10T12:32:15.559Z,3.00
2019-01-10T12:34:17.436Z,2.87
2019-01-10T12:36:19.084Z,2.80
2019-01-10T12:38:20.723Z,2.50
2019-01-10T12:40:22.608Z,2.90
2019-01-10T12:42:24.243Z,2.57
2019-01-10T12:44:25.883Z,2.90
2019-01-10T12:46:27.532Z,2.63
2019-01-10T12:48:29.172Z,3.00
2019-01-10T12:50:31.412Z,4.00
2019-01-10T12:52:35.276Z,3.70
2019-01-10T12:54:36.820Z,3.90
2019-01-10T12:56:38.476Z,2.80
2019-01-10T12:58:40.112Z,4.33
2019-01-10T13:00:41.768Z,2.90
2019-01-10T13:02:43.411Z,3.37
2019-01-10T13:04:45.047Z,3.77
2019-01-10T13:06:46.691Z,3.57
2019-01-10T13:08:48.331Z,3.13
2019-01-10T13:10:49.983Z,3.07
2019-01-10T13:12:51.632Z,3.10
2019-01-10T13:14:53.276Z,3.17
2019-01-10T13:16:54.920Z,3.07
2019-01-10T13:18:56.560Z,3.30
2019-01-10T13:20:58.204Z,2.97
2019-01-10T13:22:59.840Z,3.07
2019-01-10T13:25:01.502Z,2.67
2019-01-10T13:27:03.388Z,2.70
2019-01-10T13:29:05.271Z,3.10
2019-01-10T13:31:06.919Z,2.97
2019-01-10T13:33:08.568Z,2.60
2019-01-10T13:35:10.259Z,3.00
2019-01-10T13:37:12.195Z,2.53
2019-01-10T13:39:13.831Z,3.07
2019-01-10T13:41:15.479Z,3.47
2019-01-10T13:43:17.358Z,2.90
2019-01-10T13:45:19.089Z,3.00
2019-01-10T13:47:20.747Z,3.00
2019-01-10T13:49:22.388Z,3.73
2019-01-10T13:51:24.064Z,3.13
2019-01-10T13:53:25.703Z,3.60
2019-01-10T13:55:27.427Z,3.20
2019-01-10T13:57:29.080Z,3.30
2019-01-10T13:59:30.712Z,3.70
2019-01-10T14:01:32.355Z,3.80
2019-01-10T14:03:33.999Z,3.40
2019-01-10T14:05:35.880Z,3.53
2019-01-10T14:07:37.534Z,3.63
2019-01-10T14:09:39.162Z,4.60
2019-01-10T14:11:41.059Z,3.37
2019-01-10T14:13:42.703Z,3.60
2019-01-10T14:15:44.345Z,4.27
2019-01-10T14:17:45.992Z,4.03
2019-01-10T14:19:47.632Z,4.53
2019-01-10T14:21:49.349Z,4.40
2019-01-10T14:23:50.987Z,4.40
2019-01-10T14:25:52.627Z,4.43
2019-01-10T14:27:59.455Z,4.47
2019-01-10T14:29:58.056Z,4.90
2019-01-10T14:31:59.704Z,4.47
2019-01-10T14:34:01.331Z,4.53
2019-01-10T14:36:03.267Z,5.00
2019-01-10T14:38:04.919Z,4.43
2019-01-10T14:40:07.236Z,5.30
2019-01-10T14:42:08.901Z,5.07
2019-01-10T14:44:10.539Z,5.50
2019-01-10T14:46:12.412Z,5.00
2019-01-10T14:48:14.052Z,5.67
2019-01-10T14:50:17.415Z,4.87
2019-01-10T14:52:19.091Z,4.87
2019-01-10T14:54:20.742Z,5.67
2019-01-10T14:56:22.381Z,5.47
2019-01-10T14:58:24.125Z,5.07
2019-01-10T15:00:25.760Z,5.43
2019-01-10T15:02:28.411Z,5.10
2019-01-10T15:04:30.059Z,5.53
2019-01-10T15:06:31.692Z,6.27
2019-01-10T15:08:33.335Z,5.90
2019-01-10T15:10:35.919Z,5.53
2019-01-10T15:12:37.708Z,5.93
2019-01-10T15:14:39.369Z,6.67
2019-01-10T15:16:41.242Z,7.47
2019-01-10T15:18:42.888Z,7.30
2019-01-10T15:20:44.532Z,6.50
2019-01-10T15:22:46.279Z,6.17
2019-01-10T15:24:47.919Z,7.83
2019-01-10T15:26:49.548Z,7.60
2019-01-10T15:28:51.196Z,7.60
2019-01-10T15:30:52.827Z,5.93
2019-01-10T15:32:54.469Z,6.07
2019-01-10T15:34:56.150Z,6.93
2019-01-10T15:36:57.860Z,7.00
2019-01-10T15:38:59.770Z,7.77
2019-01-10T15:41:01.408Z,7.20
2019-01-10T15:43:04.968Z,7.10
2019-01-10T15:45:07.169Z,8.17
2019-01-10T15:47:08.811Z,8.53
2019-01-10T15:49:10.458Z,8.50
2019-01-10T15:51:12.095Z,8.70
2019-01-10T15:53:13.719Z,9.60
2019-01-10T15:55:15.665Z,8.67
2019-01-10T15:57:17.303Z,8.97
2019-01-10T15:59:18.958Z,9.43
2019-01-10T16:01:20.590Z,9.97
2019-01-10T16:03:22.228Z,9.80
2019-01-10T16:05:23.875Z,9.80
2019-01-10T16:07:27.017Z,9.40
2019-01-10T16:09:28.692Z,10.40
2019-01-10T16:11:30.323Z,9.47
2019-01-10T16:13:32.260Z,9.20
2019-01-10T16:15:34.425Z,10.20
2019-01-10T16:17:36.065Z,9.63
2019-01-10T16:19:37.992Z,10.30
2019-01-10T16:21:39.659Z,10.10
2019-01-10T16:23:41.313Z,10.50
2019-01-10T16:25:42.951Z,10.87
2019-01-10T16:27:44.835Z,11.18
2019-01-10T16:29:46.483Z,10.87
2019-01-10T16:31:48.119Z,11.10
2019-01-10T16:33:49.767Z,11.30
2019-01-10T16:35:51.651Z,11.87
2019-01-10T16:37:53.294Z,10.80
2019-01-10T16:39:55.427Z,10.80
2019-01-10T16:41:57.078Z,11.70
2019-01-10T16:43:58.727Z,11.23
2019-01-10T16:46:00.470Z,12.43
2019-01-10T16:48:02.350Z,11.57
2019-01-10T16:50:04.455Z,10.80
2019-01-10T16:52:06.095Z,10.83
2019-01-10T16:54:07.783Z,11.87
2019-01-10T16:56:09.668Z,11.97
2019-01-10T16:58:11.311Z,11.05
2019-01-10T17:00:21.919Z,11.20
2019-01-10T17:02:24.058Z,9.80
2019-01-10T17:04:25.799Z,10.88
2019-01-10T17:06:27.452Z,10.90
2019-01-10T17:08:29.096Z,11.35
2019-01-10T17:10:30.752Z,11.70
2019-01-10T17:12:33.013Z,10.33
2019-01-10T17:14:34.747Z,9.00
2019-01-10T17:16:36.399Z,9.58
2019-01-10T17:18:38.046Z,10.00
2019-01-10T17:20:39.701Z,9.43
2019-01-10T17:22:41.347Z,9.90
2019-01-10T17:24:42.990Z,9.03
2019-01-10T17:26:44.648Z,10.32
2019-01-10T17:28:46.284Z,9.53
2019-01-10T17:30:47.950Z,8.68
2019-01-10T17:32:49.604Z,8.93
2019-01-10T17:34:51.338Z,8.18
2019-01-10T17:36:53.003Z,8.40
2019-01-10T17:38:54.664Z,9.30
2019-01-10T17:40:56.315Z,9.48
2019-01-10T17:42:58.172Z,9.28
2019-01-10T17:44:59.809Z,8.95
2019-01-10T17:47:01.455Z,9.48
2019-01-10T17:49:03.102Z,9.23
2019-01-10T17:51:04.756Z,10.20
2019-01-10T17:53:06.691Z,9.68
2019-01-10T17:55:08.388Z,9.85
2019-01-10T17:57:10.043Z,9.08
2019-01-10T17:59:11.699Z,10.40
2019-01-10T18:01:13.591Z,9.88
2019-01-10T18:03:15.480Z,10.90
2019-01-10T18:05:17.360Z,11.00
2019-01-10T18:07:19.016Z,11.43
2019-01-10T18:09:20.663Z,11.65
2019-01-10T18:11:22.319Z,9.90
2019-01-10T18:13:24.004Z,9.53
2019-01-10T18:15:25.647Z,11.55
2019-01-10T18:17:28.180Z,11.60
2019-01-10T18:19:30.096Z,12.25
2019-01-10T18:21:31.747Z,11.50
2019-01-10T18:23:33.395Z,11.03
2019-01-10T18:25:35.042Z,11.48
2019-01-10T18:27:36.687Z,11.90
2019-01-10T18:29:38.333Z,12.98
2019-01-10T18:31:40.229Z,11.33
2019-01-10T18:33:41.874Z,12.80
2019-01-10T18:35:43.515Z,12.00
2019-01-10T18:37:45.403Z,12.90
2019-01-10T18:39:47.039Z,12.10
2019-01-10T18:41:48.695Z,12.33
2019-01-10T18:43:50.432Z,11.03
2019-01-10T18:45:52.079Z,12.50
2019-01-10T18:47:57.147Z,12.37
2019-01-10T18:49:57.280Z,11.35
2019-01-10T18:51:58.936Z,11.25
2019-01-10T18:54:00.580Z,13.13
2019-01-10T18:56:02.235Z,11.95
2019-01-10T18:58:04.133Z,12.35
2019-01-10T19:00:15.067Z,12.20
2019-01-10T19:02:17.024Z,12.73
2019-01-10T19:04:18.672Z,13.20
2019-01-10T19:06:20.323Z,11.90
2019-01-10T19:08:21.975Z,11.95
2019-01-10T19:10:23.615Z,12.17
2019-01-10T19:12:25.259Z,12.80
2019-01-10T19:14:26.908Z,12.18
2019-01-10T19:16:28.791Z,12.75
2019-01-10T19:18:30.445Z,12.45
2019-01-10T19:20:32.087Z,12.55
2019-01-10T19:22:33.985Z,12.65
2019-01-10T19:24:35.623Z,13.55
2019-01-10T19:26:37.269Z,13.35
2019-01-10T19:28:39.160Z,14.53
2019-01-10T19:30:40.794Z,13.68
2019-01-10T19:32:42.439Z,13.60
2019-01-10T19:34:44.084Z,13.55
2019-01-10T19:36:45.792Z,13.68
2019-01-10T19:38:47.439Z,14.30
2019-01-10T19:40:49.084Z,14.18
2019-01-10T19:42:50.741Z,13.28
2019-01-10T19:44:52.387Z,15.75
2019-01-10T19:46:54.025Z,13.40
2019-01-10T19:48:55.680Z,15.75
2019-01-10T19:50:57.331Z,13.70
2019-01-10T19:52:58.984Z,13.95
2019-01-10T19:55:00.635Z,13.17
2019-01-10T19:57:02.283Z,14.13
2019-01-10T19:59:03.943Z,14.70
2019-01-10T20:01:05.588Z,13.62
2019-01-10T20:03:07.243Z,15.45
2019-01-10T20:05:08.915Z,15.03
2019-01-10T20:07:10.572Z,15.15
2019-01-10T20:09:12.223Z,15.32
2019-01-10T20:11:13.864Z,15.77
2019-01-10T20:13:15.535Z,14.78
2019-01-10T20:15:17.184Z,16.95
2019-01-10T20:17:18.827Z,15.70
2019-01-10T20:19:20.742Z,15.03
2019-01-10T20:21:22.384Z,16.77
2019-01-10T20:23:27.006Z,16.67
2019-01-10T20:25:28.884Z,16.20
2019-01-10T20:27:30.768Z,17.60
2019-01-10T20:29:32.724Z,17.80
2019-01-10T20:31:34.377Z,17.35
2019-01-10T20:33:36.127Z,17.15
2019-01-10T20:35:37.867Z,17.23
2019-01-10T20:37:39.516Z,17.05
2019-01-10T20:39:41.174Z,17.40
2019-01-10T20:41:42.819Z,16.75
2019-01-10T20:43:44.479Z,19.00
2019-01-10T20:45:46.128Z,19.12
2019-01-10T20:47:47.771Z,17.23
2019-01-10T20:49:49.431Z,18.35
2019-01-10T20:51:51.067Z,18.85
2019-01-10T20:53:52.956Z,19.25
2019-01-10T20:55:54.611Z,19.27
2019-01-10T20:57:56.255Z,18.50
2019-01-10T20:59:57.908Z,16.05
2019-01-10T21:01:59.564Z,19.65
2019-01-10T21:04:01.215Z,19.30
2019-01-10T21:06:03.599Z,19.00
2019-01-10T21:08:05.483Z,17.98
2019-01-10T21:10:08.847Z,19.25
2019-01-10T21:12:10.495Z,21.20
2019-01-10T21:14:12.147Z,19.70
2019-01-10T21:16:13.814Z,19.45
2019-01-10T21:18:15.463Z,20.02
2019-01-10T21:20:17.120Z,20.10
2019-01-10T21:22:18.767Z,19.25
2019-01-10T21:24:20.424Z,19.87
2019-01-10T21:26:22.067Z,18.70
2019-01-10T21:28:24.542Z,18.98
2019-01-10T21:30:26.320Z,20.27
2019-01-10T21:32:27.992Z,21.12
2019-01-10T21:34:30.508Z,18.77
2019-01-10T21:36:32.160Z,20.10
2019-01-10T21:38:33.813Z,20.02
2019-01-10T21:40:35.502Z,20.12
2019-01-10T21:42:37.145Z,20.17
2019-01-10T21:44:39.728Z,20.17
2019-01-10T21:46:41.371Z,20.60
2019-01-10T21:48:43.016Z,20.82
2019-01-10T21:50:44.675Z,20.25
2019-01-10T21:52:46.561Z,19.87
2019-01-10T21:54:48.624Z,19.85
2019-01-10T21:56:51.451Z,19.65
2019-01-10T21:58:53.092Z,21.10
2019-01-10T22:00:54.759Z,19.70
2019-01-10T22:02:56.707Z,19.60
2019-01-10T22:04:58.456Z,20.37
2019-01-10T22:07:00.099Z,17.70
2019-01-10T22:09:01.775Z,18.85
2019-01-10T22:11:03.435Z,18.87
2019-01-10T22:13:05.083Z,17.45
2019-01-10T22:15:08.180Z,15.78
2019-01-10T22:17:09.835Z,17.87
2019-01-10T22:19:16.608Z,18.20
2019-01-10T22:21:15.047Z,17.25
2019-01-10T22:23:16.690Z,18.12
2019-01-10T22:25:18.366Z,16.37
2019-01-10T22:27:20.023Z,18.12
2019-01-10T22:29:21.675Z,16.57
2019-01-10T22:31:23.319Z,17.80
2019-01-10T22:33:24.964Z,17.50
2019-01-10T22:35:47.919Z,18.00
2019-01-10T22:37:51.830Z,18.67
2019-01-10T22:39:53.716Z,18.73
2019-01-10T22:41:55.369Z,19.53
2019-01-10T22:43:57.007Z,20.72
2019-01-10T22:45:58.895Z,20.00
2019-01-10T22:48:00.783Z,21.60
2019-01-10T22:50:02.544Z,20.40
2019-01-10T22:52:04.216Z,19.95
2019-01-10T22:54:05.864Z,22.02
2019-01-10T22:56:07.527Z,22.45
2019-01-10T22:58:09.415Z,21.30
2019-01-10T23:00:54.567Z,22.82
2019-01-10T23:03:02.955Z,20.08
2019-01-10T23:05:04.700Z,21.95
2019-01-10T23:07:18.444Z,21.82
2019-01-10T23:09:20.095Z,23.35
2019-01-10T23:11:22.279Z,23.07
2019-01-10T23:13:24.164Z,21.37
2019-01-10T23:15:30.888Z,23.02
2019-01-10T23:17:49.765Z,23.00
2019-01-10T23:19:51.408Z,22.52
2019-01-10T23:21:53.300Z,24.23
2019-01-10T23:24:11.003Z,23.07
2019-01-10T23:26:12.671Z,20.25
2019-01-10T23:28:14.316Z,22.55
2019-01-10T23:30:15.969Z,24.87
2019-01-10T23:32:17.621Z,19.00
2019-01-10T23:34:19.267Z,13.43
2019-01-10T23:36:21.140Z,18.80
2019-01-10T23:38:22.995Z,20.60
2019-01-10T23:40:24.644Z,20.05
2019-01-10T23:42:26.302Z,22.30
2019-01-10T23:44:27.941Z,19.27
2019-01-10T23:46:29.823Z,21.60
2019-01-10T23:48:31.480Z,20.72
2019-01-10T23:50:33.122Z,19.32
2019-01-10T23:52:35.016Z,15.88
2019-01-10T23:54:36.667Z,16.00
2019-01-10T23:56:38.339Z,16.40
2019-01-10T23:58:39.984Z,13.45
